createdAt,value
2023-05-09T00:01:41.235Z,0
2023-05-09T00:03:24.872Z,0
2023-05-09T00:05:08.522Z,0
2023-05-09T00:06:52.284Z,0
2023-05-09T00:08:35.933Z,0
2023-05-09T00:10:19.646Z,0
2023-05-09T00:12:03.365Z,0
2023-05-09T00:13:47.046Z,0
2023-05-09T00:15:30.759Z,0
2023-05-09T00:17:14.455Z,0
2023-05-09T00:18:58.150Z,0
2023-05-09T00:20:41.882Z,0
2023-05-09T00:22:25.573Z,0
2023-05-09T00:24:09.292Z,0
2023-05-09T00:25:52.980Z,0
2023-05-09T00:27:36.686Z,0
2023-05-09T00:29:20.380Z,0
2023-05-09T00:31:04.081Z,0
2023-05-09T00:32:47.792Z,0
2023-05-09T00:34:31.493Z,0
2023-05-09T00:36:15.244Z,0
2023-05-09T00:37:58.895Z,0
2023-05-09T00:39:42.632Z,1
2023-05-09T00:41:26.309Z,0
2023-05-09T00:43:09.996Z,0
2023-05-09T00:44:53.801Z,0
2023-05-09T00:46:37.415Z,0
2023-05-09T00:48:21.122Z,0
2023-05-09T00:50:04.830Z,0
2023-05-09T00:51:48.516Z,0
2023-05-09T00:53:32.228Z,0
2023-05-09T00:55:15.940Z,0
2023-05-09T00:56:59.624Z,0
2023-05-09T00:58:43.346Z,0
2023-05-09T01:00:27.056Z,0
2023-05-09T01:02:10.746Z,0
2023-05-09T01:03:54.456Z,0
2023-05-09T01:05:38.146Z,0
2023-05-09T01:07:21.861Z,1
2023-05-09T01:09:05.586Z,0
2023-05-09T01:10:49.256Z,0
2023-05-09T01:12:32.947Z,0
2023-05-09T01:14:16.666Z,0
2023-05-09T01:16:00.386Z,0
2023-05-09T01:17:44.081Z,0
2023-05-09T01:19:27.797Z,0
2023-05-09T01:21:11.476Z,0
2023-05-09T01:22:55.180Z,0
2023-05-09T01:24:38.888Z,0
2023-05-09T01:26:22.583Z,0
2023-05-09T01:28:06.309Z,0
2023-05-09T01:29:49.988Z,1
2023-05-09T01:31:33.702Z,0
2023-05-09T01:33:17.392Z,0
2023-05-09T01:35:01.129Z,0
2023-05-09T01:36:44.814Z,0
2023-05-09T01:38:28.566Z,0
2023-05-09T01:40:12.220Z,0
2023-05-09T01:41:55.930Z,0
2023-05-09T01:43:39.618Z,0
2023-05-09T01:45:23.307Z,0
2023-05-09T01:47:07.023Z,1
2023-05-09T01:48:50.724Z,0
2023-05-09T01:50:34.440Z,0
2023-05-09T01:52:18.170Z,0
2023-05-09T01:54:01.889Z,0
2023-05-09T01:55:45.528Z,0
2023-05-09T01:57:29.225Z,0
2023-05-09T01:59:12.939Z,0
2023-05-09T02:00:56.628Z,0
2023-05-09T02:02:40.398Z,0
2023-05-09T02:04:24.042Z,0
2023-05-09T02:06:07.801Z,0
2023-05-09T02:07:51.430Z,0
2023-05-09T02:09:35.176Z,0
2023-05-09T02:11:18.843Z,0
2023-05-09T02:13:02.626Z,0
2023-05-09T02:14:46.251Z,0
2023-05-09T02:16:29.963Z,0
2023-05-09T02:18:13.649Z,0
2023-05-09T02:19:57.362Z,0
2023-05-09T02:21:41.057Z,0
2023-05-09T02:23:24.754Z,0
2023-05-09T02:25:08.476Z,0
2023-05-09T02:26:52.163Z,0
2023-05-09T02:28:35.853Z,0
2023-05-09T02:30:19.569Z,0
2023-05-09T02:32:03.276Z,0
2023-05-09T02:33:46.970Z,0
2023-05-09T02:35:30.677Z,0
2023-05-09T02:37:14.399Z,0
2023-05-09T02:38:58.078Z,0
2023-05-09T02:40:41.855Z,0
2023-05-09T02:42:25.473Z,0
2023-05-09T02:44:09.184Z,0
2023-05-09T02:45:52.935Z,0
2023-05-09T02:47:36.583Z,0
2023-05-09T02:49:20.297Z,0
2023-05-09T02:51:04.004Z,0
2023-05-09T02:52:47.712Z,0
2023-05-09T02:54:31.421Z,0
2023-05-09T02:56:15.176Z,0
2023-05-09T02:57:58.805Z,0
2023-05-09T02:59:42.524Z,0
2023-05-09T03:01:26.228Z,0
2023-05-09T03:03:09.926Z,0
2023-05-09T03:04:53.679Z,0
2023-05-09T03:06:37.320Z,0
2023-05-09T03:08:21.019Z,0
2023-05-09T03:10:04.706Z,0
2023-05-09T03:11:48.427Z,0
2023-05-09T03:13:32.126Z,0
2023-05-09T03:15:15.817Z,0
2023-05-09T03:16:59.517Z,0
2023-05-09T03:18:43.254Z,1
2023-05-09T03:20:26.917Z,0
2023-05-09T03:22:10.619Z,0
2023-05-09T03:23:54.323Z,0
2023-05-09T03:25:38.095Z,0
2023-05-09T03:27:21.735Z,0
2023-05-09T03:29:05.426Z,0
2023-05-09T03:30:49.114Z,0
2023-05-09T03:32:32.828Z,0
2023-05-09T03:34:16.531Z,0
2023-05-09T03:36:00.217Z,1
2023-05-09T03:37:43.936Z,1
2023-05-09T03:39:27.629Z,1
2023-05-09T03:41:11.329Z,2
2023-05-09T03:42:55.017Z,3
2023-05-09T03:44:38.775Z,2
2023-05-09T03:46:22.452Z,3
2023-05-09T03:48:06.146Z,4
2023-05-09T03:49:49.831Z,4
2023-05-09T03:51:33.544Z,5
2023-05-09T03:53:17.240Z,5
2023-05-09T03:55:00.940Z,6
2023-05-09T03:56:44.636Z,6
2023-05-09T03:58:28.339Z,8
2023-05-09T04:00:12.048Z,9
2023-05-09T04:01:55.746Z,9
2023-05-09T04:03:39.451Z,11
2023-05-09T04:05:23.150Z,11
2023-05-09T04:07:06.853Z,12
2023-05-09T04:08:50.547Z,13
2023-05-09T04:10:34.248Z,14
2023-05-09T04:12:17.951Z,17
2023-05-09T04:14:01.673Z,18
2023-05-09T04:15:45.396Z,20
2023-05-09T04:17:29.070Z,21
2023-05-09T04:19:12.769Z,21
2023-05-09T04:20:56.472Z,22
2023-05-09T04:22:40.232Z,23
2023-05-09T04:24:23.888Z,22
2023-05-09T04:26:07.629Z,24
2023-05-09T04:27:51.282Z,24
2023-05-09T04:29:35.014Z,25
2023-05-09T04:31:18.692Z,24
2023-05-09T04:34:46.072Z,28
2023-05-09T04:36:29.816Z,32
2023-05-09T04:38:13.483Z,35
2023-05-09T04:39:57.168Z,37
2023-05-09T04:41:40.891Z,38
2023-05-09T04:43:24.588Z,40
2023-05-09T04:45:08.290Z,42
2023-05-09T04:46:52.068Z,45
2023-05-09T04:48:35.691Z,50
2023-05-09T04:50:19.409Z,60
2023-05-09T04:52:03.096Z,67
2023-05-09T04:53:46.819Z,71
2023-05-09T04:55:30.485Z,74
2023-05-09T04:57:14.193Z,75
2023-05-09T05:04:08.983Z,83
2023-05-09T05:05:52.708Z,79
2023-05-09T05:07:36.386Z,74
2023-05-09T05:09:20.099Z,71
2023-05-09T05:11:03.801Z,68
2023-05-09T05:12:47.512Z,68
2023-05-09T05:14:31.220Z,72
2023-05-09T05:17:58.614Z,73
2023-05-09T05:19:42.295Z,70
2023-05-09T05:21:25.999Z,68
2023-05-09T05:23:09.723Z,66
2023-05-09T05:24:53.407Z,65
2023-05-09T05:26:37.161Z,67
2023-05-09T05:28:20.823Z,69
2023-05-09T05:30:04.512Z,72
2023-05-09T05:31:48.222Z,75
2023-05-09T05:33:31.946Z,776
2023-05-09T05:35:15.740Z,776
2023-05-09T05:36:59.338Z,777
2023-05-09T05:38:43.039Z,776
2023-05-09T05:40:26.750Z,776
2023-05-09T05:42:10.513Z,776
2023-05-09T05:43:54.130Z,776
2023-05-09T05:45:37.832Z,777
2023-05-09T05:47:21.674Z,777
2023-05-09T05:49:05.260Z,774
2023-05-09T05:50:48.950Z,776
2023-05-09T05:52:32.675Z,777
2023-05-09T05:54:16.378Z,777
2023-05-09T05:56:00.105Z,775
2023-05-09T05:57:43.772Z,777
2023-05-09T05:59:27.465Z,777
2023-05-09T06:01:11.189Z,775
2023-05-09T06:02:54.864Z,777
2023-05-09T06:04:38.650Z,778
2023-05-09T06:06:22.300Z,777
2023-05-09T06:08:05.997Z,778
2023-05-09T06:09:49.695Z,778
2023-05-09T06:11:33.440Z,778
2023-05-09T06:13:17.110Z,777
2023-05-09T06:15:00.845Z,778
2023-05-09T06:16:44.509Z,778
2023-05-09T06:18:28.236Z,778
2023-05-09T06:20:11.921Z,778
2023-05-09T06:21:55.618Z,778
2023-05-09T06:23:39.432Z,778
2023-05-09T06:25:23.022Z,778
2023-05-09T06:27:06.721Z,779
2023-05-09T06:28:50.429Z,778
2023-05-09T06:30:34.123Z,778
2023-05-09T06:32:17.829Z,778
2023-05-09T06:34:01.525Z,779
2023-05-09T06:35:45.231Z,778
2023-05-09T06:37:28.930Z,779
2023-05-09T06:39:12.622Z,779
2023-05-09T06:40:56.322Z,779
2023-05-09T06:42:40.042Z,780
2023-05-09T06:44:23.722Z,780
2023-05-09T06:46:07.443Z,780
2023-05-09T06:47:51.129Z,781
2023-05-09T06:49:34.850Z,781
2023-05-09T06:51:18.534Z,781
2023-05-09T06:53:02.240Z,782
2023-05-09T06:54:45.955Z,782
2023-05-09T06:56:29.634Z,782
2023-05-09T06:58:13.365Z,782
2023-05-09T06:59:57.105Z,782
2023-05-09T07:01:40.816Z,779
2023-05-09T07:03:24.444Z,781
2023-05-09T07:05:08.167Z,782
2023-05-09T07:06:51.878Z,782
2023-05-09T07:08:35.547Z,783
2023-05-09T07:10:19.261Z,782
2023-05-09T07:12:02.987Z,783
2023-05-09T07:13:46.678Z,782
2023-05-09T07:15:30.372Z,782
2023-05-09T07:17:14.081Z,782
2023-05-09T07:18:57.775Z,782
2023-05-09T07:20:41.477Z,782
2023-05-09T07:22:25.274Z,782
2023-05-09T07:24:08.884Z,782
2023-05-09T07:25:52.593Z,782
2023-05-09T07:27:36.269Z,781
2023-05-09T07:29:19.987Z,783
2023-05-09T07:31:03.689Z,783
2023-05-09T07:32:47.399Z,783
2023-05-09T07:34:31.089Z,784
2023-05-09T07:36:14.798Z,784
2023-05-09T07:37:58.499Z,784
2023-05-09T07:39:42.212Z,784
2023-05-09T07:41:25.898Z,784
2023-05-09T07:43:09.680Z,783
2023-05-09T07:44:53.312Z,784
2023-05-09T07:46:37.006Z,784
2023-05-09T07:48:20.708Z,785
2023-05-09T07:50:04.430Z,784
2023-05-09T07:51:48.121Z,784
2023-05-09T07:53:31.819Z,785
2023-05-09T07:55:15.538Z,784
2023-05-09T07:56:59.249Z,785
2023-05-09T07:58:42.913Z,785
2023-05-09T08:00:26.626Z,785
2023-05-09T08:02:10.335Z,785
2023-05-09T08:03:54.036Z,785
2023-05-09T08:05:37.753Z,785
2023-05-09T08:07:21.446Z,785
2023-05-09T08:09:05.151Z,785
2023-05-09T08:10:48.840Z,785
2023-05-09T08:12:32.545Z,785
2023-05-09T08:14:16.247Z,785
2023-05-09T08:15:59.949Z,784
2023-05-09T08:17:43.666Z,784
2023-05-09T08:19:27.364Z,785
2023-05-09T08:21:11.068Z,784
2023-05-09T08:22:54.757Z,785
2023-05-09T08:24:38.455Z,784
2023-05-09T08:26:22.159Z,784
2023-05-09T08:28:05.887Z,784
2023-05-09T08:29:49.615Z,785
2023-05-09T08:31:33.278Z,784
2023-05-09T08:33:16.980Z,784
2023-05-09T08:35:00.655Z,784
2023-05-09T08:36:44.375Z,783
2023-05-09T08:38:28.153Z,784
2023-05-09T08:40:11.773Z,781
2023-05-09T08:41:55.511Z,784
2023-05-09T08:43:39.242Z,785
2023-05-09T08:45:22.898Z,784
2023-05-09T08:47:06.585Z,783
2023-05-09T08:48:50.278Z,785
2023-05-09T08:50:33.983Z,784
2023-05-09T08:52:17.691Z,781
2023-05-09T08:54:01.399Z,784
2023-05-09T08:55:45.102Z,783
2023-05-09T08:57:28.932Z,783
2023-05-09T08:59:12.586Z,783
2023-05-09T09:00:56.257Z,783
2023-05-09T09:02:39.898Z,783
2023-05-09T09:04:23.640Z,782
2023-05-09T09:06:07.307Z,783
2023-05-09T09:07:51.062Z,783
2023-05-09T09:09:34.813Z,783
2023-05-09T09:11:18.505Z,783
2023-05-09T09:13:02.129Z,783
2023-05-09T09:14:45.847Z,783
2023-05-09T09:16:29.555Z,783
2023-05-09T09:18:13.254Z,782
2023-05-09T09:19:56.934Z,782
2023-05-09T09:21:40.695Z,783
2023-05-09T09:23:24.356Z,782
2023-05-09T09:25:08.069Z,782
2023-05-09T09:26:51.746Z,783
2023-05-09T09:28:35.466Z,783
2023-05-09T09:30:19.153Z,782
2023-05-09T09:32:02.863Z,782
2023-05-09T09:33:46.568Z,782
2023-05-09T09:35:30.263Z,782
2023-05-09T09:37:13.956Z,782
2023-05-09T09:38:57.660Z,783
2023-05-09T09:40:41.359Z,782
2023-05-09T09:42:25.083Z,779
2023-05-09T09:44:08.766Z,782
2023-05-09T09:45:52.484Z,782
2023-05-09T09:47:36.170Z,782
2023-05-09T09:49:19.942Z,782
2023-05-09T09:51:03.561Z,782
2023-05-09T09:52:47.268Z,783
2023-05-09T09:54:30.985Z,782
2023-05-09T09:56:14.675Z,782
2023-05-09T09:57:58.377Z,782
2023-05-09T09:59:42.099Z,782
2023-05-09T10:01:25.793Z,780
2023-05-09T10:03:09.481Z,782
2023-05-09T10:04:53.199Z,782
2023-05-09T10:06:36.957Z,783
2023-05-09T10:08:20.623Z,782
2023-05-09T10:10:04.313Z,782
2023-05-09T10:11:48.008Z,782
2023-05-09T10:13:31.730Z,782
2023-05-09T10:15:15.412Z,782
2023-05-09T10:16:59.097Z,781
2023-05-09T10:18:42.983Z,782
2023-05-09T10:20:26.506Z,782
2023-05-09T10:22:10.398Z,782
2023-05-09T10:23:54.170Z,782
2023-05-09T10:25:37.829Z,782
2023-05-09T10:27:21.300Z,782
2023-05-09T10:29:05.151Z,782
2023-05-09T10:30:48.836Z,783
2023-05-09T10:32:32.580Z,782
2023-05-09T10:34:16.279Z,783
2023-05-09T10:35:59.955Z,782
2023-05-09T10:37:43.705Z,781
2023-05-09T10:39:27.370Z,782
2023-05-09T10:41:11.060Z,783
2023-05-09T10:42:54.820Z,782
2023-05-09T10:44:38.452Z,782
2023-05-09T10:46:22.128Z,783
2023-05-09T10:48:05.737Z,782
2023-05-09T10:49:49.502Z,782
2023-05-09T10:51:33.234Z,782
2023-05-09T10:53:16.961Z,783
2023-05-09T10:55:00.553Z,782
2023-05-09T10:56:44.283Z,783
2023-05-09T10:58:27.948Z,781
2023-05-09T11:00:11.823Z,783
2023-05-09T11:01:55.379Z,782
2023-05-09T11:03:39.057Z,782
2023-05-09T11:05:22.895Z,783
2023-05-09T11:07:06.560Z,783
2023-05-09T11:08:50.159Z,782
2023-05-09T11:10:33.948Z,782
2023-05-09T11:12:17.553Z,782
2023-05-09T11:14:01.296Z,782
2023-05-09T11:15:45.018Z,782
2023-05-09T11:17:28.850Z,782
2023-05-09T11:19:12.376Z,782
2023-05-09T11:20:56.098Z,782
2023-05-09T11:22:39.794Z,782
2023-05-09T11:24:23.476Z,782
2023-05-09T11:26:07.173Z,782
2023-05-09T11:27:50.959Z,781
2023-05-09T11:29:34.586Z,781
2023-05-09T11:31:18.504Z,782
2023-05-09T11:33:02.200Z,782
2023-05-09T11:34:45.713Z,781
2023-05-09T11:36:29.555Z,781
2023-05-09T11:38:13.245Z,781
2023-05-09T11:39:56.971Z,781
2023-05-09T11:41:40.527Z,781
2023-05-09T11:43:24.356Z,782
2023-05-09T11:45:07.978Z,782
2023-05-09T11:46:51.694Z,782
2023-05-09T11:48:35.405Z,782
2023-05-09T11:50:19.126Z,782
2023-05-09T11:52:02.699Z,783
2023-05-09T11:53:46.417Z,782
2023-05-09T11:55:30.175Z,782
2023-05-09T11:57:13.811Z,779
2023-05-09T11:58:57.700Z,782
2023-05-09T12:00:41.271Z,782
2023-05-09T12:02:24.989Z,782
2023-05-09T12:04:08.677Z,782
2023-05-09T12:05:52.340Z,781
2023-05-09T12:07:36.042Z,782
2023-05-09T12:09:19.830Z,782
2023-05-09T12:11:03.434Z,782
2023-05-09T12:12:47.180Z,782
2023-05-09T12:14:30.873Z,782
2023-05-09T12:16:14.600Z,782
2023-05-09T12:17:58.245Z,782
2023-05-09T12:19:42.007Z,782
2023-05-09T12:21:25.690Z,782
2023-05-09T12:23:09.487Z,781
2023-05-09T12:24:53.075Z,782
2023-05-09T12:26:36.750Z,781
2023-05-09T12:28:20.468Z,782
2023-05-09T12:30:04.215Z,782
2023-05-09T12:31:47.854Z,782
2023-05-09T12:33:31.729Z,782
2023-05-09T12:35:15.299Z,781
2023-05-09T12:36:59.005Z,782
2023-05-09T12:38:42.669Z,781
2023-05-09T12:40:26.412Z,781
2023-05-09T12:42:10.097Z,781
2023-05-09T12:43:53.953Z,781
2023-05-09T12:45:37.474Z,781
2023-05-09T12:47:21.341Z,781
2023-05-09T12:49:05.081Z,781
2023-05-09T12:50:48.584Z,781
2023-05-09T12:52:32.374Z,781
2023-05-09T12:54:16.006Z,781
2023-05-09T12:55:59.794Z,781
2023-05-09T12:57:43.544Z,781
2023-05-09T12:59:27.246Z,781
2023-05-09T13:01:10.931Z,781
2023-05-09T13:02:54.709Z,781
2023-05-09T13:04:38.282Z,781
2023-05-09T13:06:21.969Z,781
2023-05-09T13:08:05.610Z,778
2023-05-09T13:09:49.409Z,781
2023-05-09T13:11:33.030Z,781
2023-05-09T13:13:16.734Z,781
2023-05-09T13:15:00.483Z,781
2023-05-09T13:16:44.140Z,781
2023-05-09T13:18:27.834Z,781
2023-05-09T13:20:11.526Z,782
2023-05-09T13:21:55.278Z,782
2023-05-09T13:23:38.979Z,781
2023-05-09T13:25:22.633Z,782
2023-05-09T13:27:06.358Z,781
2023-05-09T13:28:50.056Z,781
2023-05-09T13:30:33.822Z,781
2023-05-09T13:32:17.446Z,781
2023-05-09T13:34:01.137Z,781
2023-05-09T13:35:44.906Z,781
2023-05-09T13:37:28.556Z,781
2023-05-09T13:39:12.302Z,781
2023-05-09T13:40:55.980Z,780
2023-05-09T13:42:39.687Z,781
2023-05-09T13:44:23.380Z,781
2023-05-09T13:46:07.130Z,781
2023-05-09T13:47:50.780Z,781
2023-05-09T13:49:34.495Z,781
2023-05-09T13:51:18.191Z,781
2023-05-09T13:53:01.898Z,782
2023-05-09T13:54:45.560Z,781
2023-05-09T13:56:29.328Z,781
2023-05-09T13:58:13.147Z,781
2023-05-09T13:59:56.696Z,781
2023-05-09T14:01:40.368Z,781
2023-05-09T14:03:24.170Z,781
2023-05-09T14:05:07.784Z,781
2023-05-09T14:06:51.538Z,781
2023-05-09T14:08:35.258Z,781
2023-05-09T14:10:18.890Z,781
2023-05-09T14:12:02.609Z,781
2023-05-09T14:13:46.325Z,779
2023-05-09T14:15:29.998Z,781
2023-05-09T14:17:13.712Z,781
2023-05-09T14:18:57.415Z,780
2023-05-09T14:20:41.095Z,781
2023-05-09T14:22:24.814Z,781
2023-05-09T14:24:08.517Z,781
2023-05-09T14:25:52.217Z,780
2023-05-09T14:27:35.908Z,781
2023-05-09T14:29:19.652Z,780
2023-05-09T14:31:03.322Z,781
2023-05-09T14:32:47.031Z,781
2023-05-09T14:34:30.745Z,781
2023-05-09T14:36:14.433Z,781
2023-05-09T14:37:58.145Z,782
2023-05-09T14:39:42.013Z,780
2023-05-09T14:41:25.534Z,781
2023-05-09T14:43:09.259Z,780
2023-05-09T14:44:52.961Z,780
2023-05-09T14:46:36.634Z,781
2023-05-09T14:48:20.326Z,779
2023-05-09T14:50:04.046Z,780
2023-05-09T14:51:47.741Z,780
2023-05-09T14:53:31.459Z,780
2023-05-09T14:55:15.159Z,781
2023-05-09T14:56:58.849Z,780
2023-05-09T14:58:42.572Z,780
2023-05-09T15:00:26.249Z,781
2023-05-09T15:02:09.990Z,780
2023-05-09T15:03:53.673Z,700
2023-05-09T15:05:37.451Z,574
2023-05-09T15:07:21.053Z,448
2023-05-09T15:09:04.761Z,365
2023-05-09T15:10:48.467Z,301
2023-05-09T15:12:32.171Z,270
2023-05-09T15:14:15.858Z,255
2023-05-09T15:15:59.608Z,283
2023-05-09T15:17:43.276Z,313
2023-05-09T15:19:26.990Z,357
2023-05-09T15:21:10.679Z,390
2023-05-09T15:22:54.377Z,470
2023-05-09T15:24:38.069Z,624
2023-05-09T15:26:21.863Z,712
2023-05-09T15:28:05.491Z,759
2023-05-09T15:29:49.204Z,778
2023-05-09T15:31:32.893Z,778
2023-05-09T15:33:16.597Z,778
2023-05-09T15:35:00.294Z,779
2023-05-09T15:36:44.000Z,779
2023-05-09T15:38:27.693Z,779
2023-05-09T15:40:11.391Z,779
2023-05-09T15:41:55.094Z,779
2023-05-09T15:43:38.843Z,779
2023-05-09T15:45:22.511Z,779
2023-05-09T15:47:06.211Z,779
2023-05-09T15:48:49.918Z,779
2023-05-09T15:50:33.622Z,779
2023-05-09T15:52:17.330Z,779
2023-05-09T15:54:01.038Z,779
2023-05-09T15:55:44.733Z,779
2023-05-09T15:57:28.474Z,780
2023-05-09T15:59:12.131Z,780
2023-05-09T16:00:55.872Z,779
2023-05-09T16:02:39.592Z,779
2023-05-09T16:04:23.224Z,779
2023-05-09T16:06:06.931Z,779
2023-05-09T16:07:50.635Z,779
2023-05-09T16:09:34.351Z,779
2023-05-09T16:11:18.050Z,777
2023-05-09T16:13:01.770Z,779
2023-05-09T16:14:45.435Z,779
2023-05-09T16:16:29.149Z,780
2023-05-09T16:18:12.856Z,779
2023-05-09T16:19:56.554Z,779
2023-05-09T16:21:40.330Z,779
2023-05-09T16:23:23.997Z,779
2023-05-09T16:25:07.677Z,779
2023-05-09T16:26:51.380Z,779
2023-05-09T16:28:35.106Z,779
2023-05-09T16:30:18.763Z,779
2023-05-09T16:32:02.533Z,778
2023-05-09T16:33:46.194Z,780
2023-05-09T16:35:29.869Z,779
2023-05-09T16:37:13.576Z,779
2023-05-09T16:38:57.273Z,779
2023-05-09T16:40:41.056Z,780
2023-05-09T16:42:24.683Z,779
2023-05-09T16:44:08.433Z,779
2023-05-09T16:45:52.086Z,779
2023-05-09T16:47:35.785Z,779
2023-05-09T16:49:19.506Z,746
2023-05-09T16:51:03.197Z,644
2023-05-09T16:52:46.878Z,547
2023-05-09T16:54:30.597Z,442
2023-05-09T16:56:14.298Z,337
2023-05-09T17:01:25.403Z,236
2023-05-09T17:03:09.108Z,250
2023-05-09T17:04:52.809Z,267
2023-05-09T17:06:36.490Z,278
2023-05-09T17:08:20.197Z,284
2023-05-09T17:10:03.904Z,274
2023-05-09T17:11:47.625Z,247
2023-05-09T17:13:31.317Z,213
2023-05-09T17:15:15.063Z,180
2023-05-09T17:16:58.719Z,151
2023-05-09T17:18:42.413Z,129
2023-05-09T17:20:26.131Z,115
2023-05-09T17:22:09.820Z,112
2023-05-09T17:23:53.522Z,106
2023-05-09T17:25:37.234Z,93
2023-05-09T17:27:20.917Z,67
2023-05-09T17:29:04.622Z,48
2023-05-09T17:30:48.317Z,38
2023-05-09T17:32:32.079Z,38
2023-05-09T17:34:15.718Z,42
2023-05-09T17:35:59.417Z,47
2023-05-09T17:37:43.137Z,55
2023-05-09T17:39:26.830Z,61
2023-05-09T17:41:10.515Z,67
2023-05-09T17:42:54.228Z,69
2023-05-09T17:44:37.949Z,71
2023-05-09T17:46:21.651Z,71
2023-05-09T17:48:05.350Z,72
2023-05-09T17:49:49.104Z,75
2023-05-09T17:51:32.739Z,75
2023-05-09T17:53:16.441Z,79
2023-05-09T17:55:00.146Z,83
2023-05-09T17:56:43.846Z,88
2023-05-09T17:58:27.608Z,92
2023-05-09T18:00:11.223Z,97
2023-05-09T18:01:54.929Z,104
2023-05-09T18:03:38.653Z,107
2023-05-09T18:05:22.348Z,107
2023-05-09T18:07:06.035Z,102
2023-05-09T18:08:49.807Z,92
2023-05-09T18:10:33.434Z,80
2023-05-09T18:12:17.151Z,72
2023-05-09T18:14:00.858Z,63
2023-05-09T18:15:44.565Z,43
2023-05-09T18:17:28.273Z,25
2023-05-09T18:19:11.950Z,22
2023-05-09T18:20:55.759Z,21
2023-05-09T18:22:39.384Z,20
2023-05-09T18:24:23.171Z,18
2023-05-09T18:26:06.778Z,17
2023-05-09T18:27:50.457Z,17
2023-05-09T18:29:34.157Z,16
2023-05-09T18:31:17.863Z,16
2023-05-09T18:33:01.577Z,14
2023-05-09T18:34:45.355Z,13
2023-05-09T18:36:29.131Z,10
2023-05-09T18:38:12.729Z,10
2023-05-09T18:39:56.393Z,8
2023-05-09T18:41:40.078Z,6
2023-05-09T18:43:23.907Z,5
2023-05-09T18:45:07.565Z,4
2023-05-09T18:46:51.208Z,4
2023-05-09T18:48:34.907Z,3
2023-05-09T18:50:18.590Z,3
2023-05-09T18:52:02.295Z,3
2023-05-09T18:53:46.098Z,3
2023-05-09T18:55:29.798Z,3
2023-05-09T18:57:13.410Z,2
2023-05-09T18:58:57.142Z,2
2023-05-09T19:00:40.825Z,2
2023-05-09T19:02:24.524Z,1
2023-05-09T19:04:08.225Z,1
2023-05-09T19:05:52.081Z,1
2023-05-09T19:07:35.829Z,1
2023-05-09T19:09:19.514Z,0
2023-05-09T19:11:03.204Z,0
2023-05-09T19:12:46.894Z,0
2023-05-09T19:14:30.608Z,0
2023-05-09T19:16:14.174Z,0
2023-05-09T19:17:57.956Z,0
2023-05-09T19:19:41.563Z,0
2023-05-09T19:21:25.256Z,1
2023-05-09T19:23:08.957Z,0
2023-05-09T19:24:52.693Z,0
2023-05-09T19:26:36.519Z,0
2023-05-09T19:28:20.060Z,0
2023-05-09T19:30:03.767Z,0
2023-05-09T19:31:47.604Z,0
2023-05-09T19:33:31.174Z,0
2023-05-09T19:35:14.892Z,0
2023-05-09T19:36:58.644Z,0
2023-05-09T19:38:42.280Z,0
2023-05-09T19:40:26.055Z,1
2023-05-09T19:42:09.772Z,0
2023-05-09T19:43:53.387Z,0
2023-05-09T19:45:37.120Z,0
2023-05-09T19:47:20.857Z,0
2023-05-09T19:49:04.568Z,0
2023-05-09T19:50:48.400Z,0
2023-05-09T19:52:31.988Z,0
2023-05-09T19:54:15.702Z,0
2023-05-09T19:55:59.333Z,0
2023-05-09T19:57:43.096Z,0
2023-05-09T19:59:26.735Z,0
2023-05-09T20:01:10.611Z,0
2023-05-09T20:02:54.203Z,0
2023-05-09T20:04:37.917Z,0
2023-05-09T20:06:21.596Z,2
2023-05-09T20:08:05.268Z,0
2023-05-09T20:09:48.979Z,0
2023-05-09T20:11:32.721Z,0
2023-05-09T20:13:16.368Z,0
2023-05-09T20:15:00.073Z,0
2023-05-09T20:16:43.764Z,40
2023-05-09T20:18:27.539Z,42
2023-05-09T20:20:11.174Z,362
2023-05-09T20:21:54.888Z,366
2023-05-09T20:23:38.633Z,359
2023-05-09T20:25:22.288Z,367
2023-05-09T20:27:05.987Z,365
2023-05-09T20:28:49.750Z,367
2023-05-09T20:30:33.540Z,346
2023-05-09T20:32:17.146Z,347
2023-05-09T20:34:00.819Z,349
2023-05-09T20:35:44.583Z,349
2023-05-09T20:37:28.183Z,364
2023-05-09T20:39:11.898Z,346
2023-05-09T20:40:55.606Z,340
2023-05-09T20:42:39.368Z,345
2023-05-09T20:44:23.009Z,345
2023-05-09T20:46:06.788Z,373
2023-05-09T20:47:50.417Z,371
2023-05-09T20:49:34.116Z,368
2023-05-09T20:51:17.853Z,356
2023-05-09T20:53:01.547Z,343
2023-05-09T20:54:45.286Z,346
2023-05-09T20:56:28.963Z,334
2023-05-09T20:58:12.635Z,358
2023-05-09T20:59:56.348Z,360
2023-05-09T21:01:40.102Z,351
2023-05-09T21:03:23.764Z,351
2023-05-09T21:05:07.465Z,354
2023-05-09T21:06:51.202Z,358
2023-05-09T21:08:34.866Z,359
2023-05-09T21:10:18.568Z,359
2023-05-09T21:12:02.285Z,358
2023-05-09T21:13:45.979Z,360
2023-05-09T21:15:29.758Z,358
2023-05-09T21:17:13.404Z,360
2023-05-09T21:18:57.091Z,368
2023-05-09T21:20:40.802Z,359
2023-05-09T21:22:24.498Z,354
2023-05-09T21:24:08.201Z,362
2023-05-09T21:25:51.919Z,358
2023-05-09T21:27:35.620Z,356
2023-05-09T21:29:19.324Z,364
2023-05-09T21:31:03.010Z,355
2023-05-09T21:32:46.724Z,358
2023-05-09T21:34:30.472Z,351
2023-05-09T21:36:14.137Z,356
2023-05-09T21:37:57.842Z,354
2023-05-09T21:39:41.545Z,350
2023-05-09T21:41:25.275Z,77
2023-05-09T21:43:08.941Z,75
2023-05-09T21:44:52.645Z,72
2023-05-09T21:46:36.444Z,73
2023-05-09T21:48:20.034Z,74
2023-05-09T21:50:03.749Z,76
2023-05-09T21:51:47.436Z,83
2023-05-09T21:53:31.171Z,35
2023-05-09T21:55:14.836Z,35
2023-05-09T21:56:58.560Z,33
2023-05-09T21:58:42.238Z,30
2023-05-09T22:00:25.942Z,30
2023-05-09T22:02:09.681Z,26
2023-05-09T22:03:53.370Z,25
2023-05-09T22:05:37.061Z,27
2023-05-09T22:07:20.794Z,24
2023-05-09T22:09:04.476Z,27
2023-05-09T22:10:48.185Z,25
2023-05-09T22:12:31.884Z,34
2023-05-09T22:14:15.571Z,35
2023-05-09T22:15:59.394Z,36
2023-05-09T22:17:42.991Z,36
2023-05-09T22:19:26.676Z,36
2023-05-09T22:21:10.443Z,36
2023-05-09T22:22:54.096Z,36
2023-05-09T22:24:37.793Z,36
2023-05-09T22:26:21.514Z,37
2023-05-09T22:28:05.189Z,35
2023-05-09T22:29:48.899Z,46
2023-05-09T22:31:32.619Z,47
2023-05-09T22:33:16.292Z,48
2023-05-09T22:34:59.996Z,46
2023-05-09T22:36:43.721Z,46
2023-05-09T22:38:27.474Z,47
2023-05-09T22:40:11.115Z,0
2023-05-09T22:41:54.817Z,0
2023-05-09T22:43:38.514Z,0
2023-05-09T22:45:22.242Z,0
2023-05-09T22:47:05.910Z,0
2023-05-09T22:48:49.637Z,0
2023-05-09T22:50:33.335Z,0
2023-05-09T22:52:17.058Z,0
2023-05-09T22:54:00.721Z,0
2023-05-09T22:55:44.437Z,0
2023-05-09T22:57:28.151Z,0
2023-05-09T22:59:18.330Z,0
2023-05-09T23:00:55.552Z,0
2023-05-09T23:02:39.246Z,0
2023-05-09T23:04:22.965Z,1
2023-05-09T23:06:06.678Z,0
2023-05-09T23:07:50.354Z,0
2023-05-09T23:09:34.056Z,0
2023-05-09T23:11:17.748Z,0
2023-05-09T23:13:01.463Z,0
2023-05-09T23:14:45.143Z,1
2023-05-09T23:16:28.863Z,0
2023-05-09T23:18:12.569Z,0
2023-05-09T23:19:56.295Z,0
2023-05-09T23:21:39.972Z,0
2023-05-09T23:23:23.686Z,0
2023-05-09T23:25:07.376Z,0
2023-05-09T23:26:51.093Z,0
2023-05-09T23:28:34.763Z,0
2023-05-09T23:30:18.476Z,0
2023-05-09T23:32:02.189Z,0
2023-05-09T23:33:45.891Z,0
2023-05-09T23:35:29.590Z,0
2023-05-09T23:37:13.334Z,0
2023-05-09T23:38:56.989Z,0
2023-05-09T23:40:40.689Z,0
2023-05-09T23:42:24.410Z,0
2023-05-09T23:44:08.108Z,0
2023-05-09T23:45:51.807Z,0
2023-05-09T23:47:35.516Z,0
2023-05-09T23:49:19.238Z,0
2023-05-09T23:51:02.937Z,0
2023-05-09T23:52:46.631Z,0
2023-05-09T23:54:30.338Z,0
2023-05-09T23:56:14.038Z,0
2023-05-09T23:57:57.734Z,0
2023-05-09T23:59:41.451Z,0
